Time;durP1;ratioP1;P1;durP2;ratioP2;P2;SDS_P1;SDS_P2;PMS_P1;PMS_P2;Temp;Humidity;BMP_temperature;BMP_pressure;BME280_temperature;BME280_humidity;BME280_pressure;Samples;Min_cycle;Max_cycle;Signal;HPM_P1;HPM_P2
2023/03/10 00:00:15;;;;;;;9.32;3.97;;;333.20;2329.60;;;;;;5079417;28;20021;-74
2023/03/10 00:02:45;;;;;;;8.40;3.80;;;333.30;2329.60;;;;;;5078123;28;20032;-74
2023/03/10 00:05:11;;;;;;;9.02;4.28;;;333.40;2329.60;;;;;;5064818;28;20415;-73
2023/03/10 00:07:37;;;;;;;17.55;8.38;;;333.30;1971.20;;;;;;5078174;28;20024;-75
2023/03/10 00:10:03;;;;;;;30.95;13.80;;;333.40;2329.60;;;;;;5095263;28;20058;-76
2023/03/10 00:12:28;;;;;;;23.55;9.23;;;333.40;2329.60;;;;;;5079612;28;20028;-74
2023/03/10 00:14:55;;;;;;;24.48;13.48;;;333.40;2329.60;;;;;;5079249;28;20029;-75
2023/03/10 00:17:21;;;;;;;19.95;10.20;;;333.40;2329.60;;;;;;5079426;28;20020;-74
2023/03/10 00:19:46;;;;;;;16.23;6.78;;;333.40;2329.60;;;;;;5079463;28;20369;-75
2023/03/10 00:22:12;;;;;;;10.68;5.80;;;333.40;2329.60;;;;;;5077906;28;20024;-75
2023/03/10 00:24:38;;;;;;;11.93;5.07;;;333.40;2329.60;;;;;;5077913;28;20102;-75
2023/03/10 00:27:04;;;;;;;10.68;5.07;;;333.50;2329.60;;;;;;5078009;28;20025;-74
2023/03/10 00:29:29;;;;;;;9.80;4.85;;;333.40;2329.60;;;;;;5079100;28;20032;-74
2023/03/10 00:31:55;;;;;;;8.27;3.65;;;333.30;2329.60;;;;;;5077721;28;20087;-75
2023/03/10 00:34:21;;;;;;;5.70;3.38;;;333.10;2329.60;;;;;;5079191;28;20051;-74
2023/03/10 00:36:46;;;;;;;8.02;3.22;;;332.90;2329.60;;;;;;5079005;28;20022;-74
2023/03/10 00:39:12;;;;;;;8.90;3.80;;;332.80;2329.60;;;;;;5081477;28;20059;-76
2023/03/10 00:41:38;;;;;;;8.30;3.70;;;308.10;2304.00;;;;;;5079288;28;20430;-74
2023/03/10 00:44:05;;;;;;;8.77;4.28;;;308.10;2304.00;;;;;;5094408;28;20427;-74
2023/03/10 00:46:33;;;;;;;12.77;4.82;;;308.10;2304.00;;;;;;5078961;28;20020;-74
2023/03/10 00:48:59;;;;;;;17.75;8.18;;;308.00;2304.00;;;;;;5071798;28;20021;-74
2023/03/10 00:51:24;;;;;;;13.20;6.50;;;308.00;2304.00;;;;;;5072971;28;20023;-74
2023/03/10 00:53:50;;;;;;;12.80;6.70;;;308.00;2304.00;;;;;;5079212;28;20020;-74
2023/03/10 00:56:18;;;;;;;13.35;7.25;;;308.00;2304.00;;;;;;5079046;28;20110;-74
2023/03/10 00:58:45;;;;;;;17.50;7.55;;;308.00;2304.00;;;;;;5077861;28;20036;-74
2023/03/10 01:01:18;;;;;;;10.02;6.05;;;308.00;2304.00;;;;;;5074057;28;20059;-74
2023/03/10 01:03:44;;;;;;;6.63;3.60;;;308.00;2304.00;;;;;;5074019;28;20072;-75
2023/03/10 01:06:10;;;;;;;8.57;3.33;;;308.00;2304.00;;;;;;5075662;28;20074;-74
2023/03/10 01:08:36;;;;;;;6.00;3.17;;;308.10;2201.60;;;;;;5075657;28;20468;-74
2023/03/10 01:11:02;;;;;;;6.68;3.55;;;308.10;2304.00;;;;;;5074119;28;20113;-75
2023/03/10 01:13:28;;;;;;;8.75;4.75;;;308.00;2304.00;;;;;;5074197;28;20123;-75
2023/03/10 01:15:53;;;;;;;7.45;3.78;;;308.00;2304.00;;;;;;5075336;28;20035;-75
2023/03/10 01:18:20;;;;;;;7.13;3.78;;;308.10;2304.00;;;;;;5075455;28;20024;-74
2023/03/10 01:20:46;;;;;;;8.20;3.75;;;308.10;2304.00;;;;;;5075186;28;20430;-74
2023/03/10 01:23:14;;;;;;;8.18;3.80;;;332.90;2329.60;;;;;;5075099;28;20384;-74
2023/03/10 01:25:40;;;;;;;8.35;4.18;;;308.10;2304.00;;;;;;5073887;28;20052;-74
2023/03/10 01:28:06;;;;;;;9.07;3.75;;;308.10;2304.00;;;;;;5073996;28;20106;-74
2023/03/10 01:30:31;;;;;;;6.25;3.75;;;332.90;2329.60;;;;;;5074736;28;20031;-74
2023/03/10 01:32:57;;;;;;;6.45;3.70;;;333.00;2329.60;;;;;;5073602;28;20477;-74
2023/03/10 01:35:23;;;;;;;6.57;4.05;;;333.00;2329.60;;;;;;5062313;28;20078;-74
2023/03/10 01:37:48;;;;;;;8.02;3.97;;;333.00;2329.60;;;;;;5075009;28;20027;-74
2023/03/10 01:40:15;;;;;;;11.50;6.45;;;333.10;2329.60;;;;;;5074062;28;20040;-75
2023/03/10 01:42:42;;;;;;;11.65;5.70;;;333.10;2329.60;;;;;;5073606;28;20021;-74
2023/03/10 01:45:29;;;;;;;12.40;6.75;;;333.10;2329.60;;;;;;5074908;28;20535;-74
2023/03/10 01:47:55;;;;;;;10.70;4.35;;;333.10;2329.60;;;;;;5065980;28;20484;-74
2023/03/10 01:50:22;;;;;;;7.43;4.32;;;332.90;2329.60;;;;;;5054723;28;20021;-74
2023/03/10 01:52:55;;;;;;;9.82;5.13;;;332.80;2329.60;;;;;;5071110;28;20028;-74
2023/03/10 01:55:28;;;;;;;8.85;4.60;;;332.80;2329.60;;;;;;5074772;28;20054;-74
2023/03/10 01:57:55;;;;;;;7.72;5.45;;;308.10;2304.00;;;;;;5073841;28;20496;-74
2023/03/10 02:00:22;;;;;;;10.52;5.90;;;308.00;2304.00;;;;;;5054302;28;20025;-74
2023/03/10 02:03:06;;;;;;;12.35;6.57;;;308.00;2304.00;;;;;;5062501;28;20031;-75
2023/03/10 02:05:35;;;;;;;10.73;6.30;;;308.00;2304.00;;;;;;5060985;28;20067;-75
2023/03/10 02:08:01;;;;;;;14.13;6.47;;;307.90;2304.00;;;;;;5074541;28;20035;-75
2023/03/10 02:10:28;;;;;;;10.57;7.15;;;307.90;2304.00;;;;;;5074181;28;20042;-75
2023/03/10 02:12:54;;;;;;;12.55;6.72;;;307.90;2304.00;;;;;;5074761;28;20017;-75
2023/03/10 02:15:20;;;;;;;13.65;8.35;;;308.00;2304.00;;;;;;5068585;28;20056;-74
2023/03/10 02:17:48;;;;;;;15.52;8.77;;;308.10;2304.00;;;;;;5066740;28;20461;-75
2023/03/10 02:20:48;;;;;;;15.93;10.30;;;308.10;2304.00;;;;;;5072712;28;20472;-75
2023/03/10 02:23:37;;;;;;;17.30;9.45;;;307.90;2304.00;;;;;;5041595;28;20041;-74
2023/03/10 02:26:27;;;;;;;16.42;9.20;;;307.80;2304.00;;;;;;5068103;28;20102;-75
2023/03/10 02:28:55;;;;;;;15.88;9.93;;;307.70;2304.00;;;;;;5060546;28;20053;-75
2023/03/10 02:31:21;;;;;;;17.45;10.15;;;307.60;2304.00;;;;;;5064994;28;20377;-75
2023/03/10 02:33:49;;;;;;;16.88;10.98;;;307.50;2304.00;;;;;;5056379;28;20041;-74
2023/03/10 02:36:21;;;;;;;20.73;12.75;;;307.40;2304.00;;;;;;5064186;28;20484;-74
2023/03/10 02:38:47;;;;;;;18.25;12.27;;;307.40;2304.00;;;;;;5054926;28;20036;-74
2023/03/10 02:41:19;;;;;;;19.10;12.35;;;307.50;2304.00;;;;;;5073903;28;20021;-75
2023/03/10 02:43:47;;;;;;;19.33;11.57;;;307.40;2304.00;;;;;;5073537;28;20039;-74
2023/03/10 02:46:12;;;;;;;21.58;11.77;;;307.40;2304.00;;;;;;5063805;28;20052;-75
2023/03/10 02:48:39;;;;;;;20.67;10.52;;;307.40;2304.00;;;;;;5068932;28;20082;-74
2023/03/10 02:51:17;;;;;;;14.68;9.90;;;307.30;2304.00;;;;;;5063123;28;20013;-75
2023/03/10 02:53:42;;;;;;;14.30;9.90;;;307.30;2304.00;;;;;;5072553;28;20017;-74
2023/03/10 02:56:08;;;;;;;17.08;10.20;;;307.30;2304.00;;;;;;5073672;28;20031;-74
2023/03/10 02:58:35;;;;;;;20.50;10.80;;;307.30;2304.00;;;;;;5069802;28;20017;-75
2023/03/10 03:01:00;;;;;;;14.95;10.23;;;307.30;2304.00;;;;;;5053425;28;20071;-75
2023/03/10 03:03:26;;;;;;;19.05;11.00;;;307.30;2304.00;;;;;;5066445;28;20028;-74
2023/03/10 03:05:52;;;;;;;16.20;10.82;;;307.30;2304.00;;;;;;5053459;28;20412;-75
2023/03/10 03:08:18;;;;;;;16.88;10.25;;;307.30;2304.00;;;;;;5057885;28;20096;-75
2023/03/10 03:10:44;;;;;;;19.30;10.45;;;307.30;2304.00;;;;;;5061871;28;20031;-75
2023/03/10 03:13:10;;;;;;;17.83;10.43;;;307.30;2304.00;;;;;;5058088;28;20086;-76
2023/03/10 03:15:36;;;;;;;15.88;10.20;;;307.20;2304.00;;;;;;5061274;28;20033;-75
2023/03/10 03:18:03;;;;;;;15.85;9.10;;;307.20;2304.00;;;;;;5065033;28;20021;-74
2023/03/10 03:20:31;;;;;;;13.20;8.93;;;307.20;2304.00;;;;;;5064410;28;20032;-75
2023/03/10 03:22:57;;;;;;;14.77;9.30;;;307.20;2304.00;;;;;;5065773;28;20020;-75
2023/03/10 03:25:24;;;;;;;11.82;8.48;;;307.20;2304.00;;;;;;5052956;28;20029;-74
2023/03/10 03:27:50;;;;;;;16.17;9.57;;;282.50;2278.40;;;;;;5066236;28;20419;-75
2023/03/10 03:30:20;;;;;;;13.68;8.05;;;282.50;2048.00;;;;;;5066053;28;20024;-74
2023/03/10 03:32:46;;;;;;;18.00;9.40;;;282.50;2176.00;;;;;;5053025;28;20021;-74
2023/03/10 03:35:33;;;;;;;13.63;8.55;;;282.40;2278.40;;;;;;5053948;28;20500;-74
2023/03/10 03:37:59;;;;;;;16.48;9.48;;;282.40;2278.40;;;;;;5062044;28;20036;-74
2023/03/10 03:40:29;;;;;;;14.00;8.68;;;282.30;2278.40;;;;;;5052821;28;20021;-74
2023/03/10 03:42:55;;;;;;;11.32;8.10;;;282.30;2278.40;;;;;;5053094;28;20017;-74
2023/03/10 03:45:24;;;;;;;15.65;8.38;;;282.30;2278.40;;;;;;5052764;28;20476;-74
2023/03/10 03:47:50;;;;;;;12.48;8.00;;;282.30;2278.40;;;;;;5052882;28;20107;-74
2023/03/10 03:50:17;;;;;;;13.52;7.95;;;282.40;2278.40;;;;;;5052626;28;20021;-74
2023/03/10 03:52:43;;;;;;;11.65;7.50;;;282.50;2278.40;;;;;;5052636;28;20028;-75
2023/03/10 03:55:12;;;;;;;12.00;7.05;;;282.50;2278.40;;;;;;5059944;28;20025;-74
2023/03/10 03:57:38;;;;;;;21.10;7.50;;;282.50;2278.40;;;;;;5071528;28;20021;-74
2023/03/10 04:00:07;;;;;;;12.90;8.25;;;307.20;2304.00;;;;;;5052880;28;20017;-74
2023/03/10 04:02:33;;;;;;;15.57;8.65;;;307.20;2073.60;;;;;;5065651;28;20020;-74
2023/03/10 04:04:59;;;;;;;17.00;7.93;;;307.20;2304.00;;;;;;5059862;28;20041;-74
2023/03/10 04:07:25;;;;;;;13.55;7.43;;;307.20;2304.00;;;;;;5068325;28;20036;-74
2023/03/10 04:09:50;;;;;;;18.65;7.97;;;307.30;2304.00;;;;;;5052647;28;20489;-74
2023/03/10 04:12:16;;;;;;;15.57;8.90;;;307.30;2304.00;;;;;;5065645;28;20017;-74
2023/03/10 04:14:42;;;;;;;18.10;8.70;;;307.30;2304.00;;;;;;5052509;28;20028;-74
2023/03/10 04:17:07;;;;;;;14.57;7.97;;;307.30;2304.00;;;;;;5067921;28;20020;-74
2023/03/10 04:19:33;;;;;;;15.13;7.82;;;307.30;2304.00;;;;;;5071422;28;20024;-74
2023/03/10 04:21:59;;;;;;;14.32;8.85;;;307.20;2304.00;;;;;;5059065;28;20028;-74
2023/03/10 04:24:25;;;;;;;14.98;9.48;;;307.20;2304.00;;;;;;5071205;28;20040;-74
2023/03/10 04:26:51;;;;;;;13.80;8.57;;;282.50;2278.40;;;;;;5066070;28;20022;-75
2023/03/10 04:29:16;;;;;;;12.55;7.90;;;282.50;2278.40;;;;;;5054016;28;20066;-74
2023/03/10 04:31:42;;;;;;;14.07;8.02;;;282.50;2278.40;;;;;;5064264;28;20024;-74
2023/03/10 04:34:08;;;;;;;13.43;8.00;;;282.40;2278.40;;;;;;5072229;28;20068;-75
2023/03/10 04:36:34;;;;;;;12.48;8.10;;;282.40;2278.40;;;;;;5063905;28;20489;-74
2023/03/10 04:39:00;;;;;;;15.30;8.25;;;282.50;2278.40;;;;;;5055887;28;20021;-74
2023/03/10 04:41:26;;;;;;;15.18;8.48;;;282.40;2278.40;;;;;;5055824;28;20078;-75
2023/03/10 04:43:51;;;;;;;12.18;8.25;;;282.50;2278.40;;;;;;5062186;28;20043;-74
2023/03/10 04:46:17;;;;;;;12.27;7.78;;;282.50;2278.40;;;;;;5061302;28;20377;-74
2023/03/10 04:48:43;;;;;;;19.85;9.57;;;282.40;2278.40;;;;;;5055899;28;20036;-74
2023/03/10 04:51:11;;;;;;;12.27;7.95;;;282.40;2278.40;;;;;;5069021;28;20489;-74
2023/03/10 04:53:37;;;;;;;13.00;8.18;;;282.30;2278.40;;;;;;5056075;28;20021;-74
2023/03/10 04:56:06;;;;;;;12.73;7.97;;;282.30;2278.40;;;;;;5054400;28;20031;-74
2023/03/10 04:58:32;;;;;;;14.98;9.35;;;282.30;2278.40;;;;;;5055863;28;20453;-74
2023/03/10 05:00:58;;;;;;;14.73;9.20;;;282.10;2278.40;;;;;;5055611;28;20071;-74
2023/03/10 05:03:24;;;;;;;15.77;9.13;;;282.30;2278.40;;;;;;5055530;28;20025;-74
2023/03/10 05:05:50;;;;;;;15.35;8.88;;;282.20;2278.40;;;;;;5055706;28;20135;-75
2023/03/10 05:08:15;;;;;;;17.27;9.13;;;282.30;2278.40;;;;;;5055681;28;20052;-74
2023/03/10 05:10:43;;;;;;;14.13;8.98;;;282.40;2278.40;;;;;;5072022;28;20030;-74
2023/03/10 05:13:11;;;;;;;13.90;9.18;;;282.30;2278.40;;;;;;5065417;28;20042;-74
2023/03/10 05:15:38;;;;;;;19.25;11.70;;;282.30;2278.40;;;;;;5072754;28;20025;-74
2023/03/10 05:18:04;;;;;;;15.38;9.65;;;282.20;2278.40;;;;;;5064183;28;20048;-74
2023/03/10 05:20:30;;;;;;;15.35;8.88;;;282.20;2278.40;;;;;;5068461;28;20025;-75
2023/03/10 05:22:55;;;;;;;21.63;10.18;;;282.20;2278.40;;;;;;5055253;28;20025;-74
2023/03/10 05:25:21;;;;;;;17.98;8.85;;;282.30;2278.40;;;;;;5055060;28;20033;-74
2023/03/10 05:27:47;;;;;;;14.25;9.52;;;282.20;2278.40;;;;;;5067048;28;20021;-74
2023/03/10 05:30:14;;;;;;;19.55;9.80;;;282.20;2278.40;;;;;;5068093;28;20025;-74
2023/03/10 05:32:41;;;;;;;16.52;10.52;;;282.20;2278.40;;;;;;5066767;28;20029;-74
2023/03/10 05:35:08;;;;;;;19.30;11.02;;;282.20;2278.40;;;;;;5054952;28;20024;-74
2023/03/10 05:37:38;;;;;;;19.63;10.18;;;282.20;2278.40;;;;;;5055083;28;20515;-75
2023/03/10 05:40:06;;;;;;;15.30;9.73;;;282.30;2048.00;;;;;;5056364;28;20021;-74
2023/03/10 05:42:32;;;;;;;15.13;9.15;;;282.30;2278.40;;;;;;5066490;28;20477;-75
2023/03/10 05:44:57;;;;;;;17.17;9.50;;;282.30;2278.40;;;;;;5068024;28;20050;-74
2023/03/10 05:47:23;;;;;;;15.50;8.85;;;282.30;2124.80;;;;;;5062507;28;20107;-74
2023/03/10 05:49:49;;;;;;;;;;;282.30;2278.40;;;;;;5062084;28;20040;-74
2023/03/10 05:52:15;;;;;;;15.85;10.27;;;282.30;2278.40;;;;;;5074057;28;19904;-74
2023/03/10 05:54:40;;;;;;;;;;;282.30;2278.40;;;;;;5061816;28;20013;-74
2023/03/10 05:57:06;;;;;;;18.17;10.63;;;282.40;2278.40;;;;;;5074914;28;19905;-75
2023/03/10 05:59:32;;;;;;;17.50;9.88;;;282.40;2278.40;;;;;;5071166;28;20052;-74
2023/03/10 06:01:57;;;;;;;15.85;9.13;;;282.50;2278.40;;;;;;5054654;28;20070;-74
2023/03/10 06:04:23;;;;;;;;;;;282.50;2278.40;;;;;;5054768;28;20029;-75
2023/03/10 06:06:49;;;;;;;17.17;9.32;;;307.20;2304.00;;;;;;5065413;28;19915;-74
2023/03/10 06:09:14;;;;;;;16.52;10.02;;;307.20;2304.00;;;;;;5074447;28;20021;-74
2023/03/10 06:11:40;;;;;;;14.38;8.68;;;307.20;2304.00;;;;;;5063678;28;20048;-73
2023/03/10 06:14:06;;;;;;;17.42;9.07;;;307.20;2304.00;;;;;;5054099;28;20075;-77
2023/03/10 06:16:31;;;;;;;20.08;9.65;;;307.30;2304.00;;;;;;5065082;28;20388;-75
2023/03/10 06:18:57;;;;;;;13.25;8.98;;;307.30;2304.00;;;;;;5067821;28;20040;-76
2023/03/10 06:21:24;;;;;;;14.55;10.70;;;307.30;2304.00;;;;;;5054499;28;20100;-75
2023/03/10 06:23:49;;;;;;;16.98;9.77;;;307.40;2278.40;;;;;;5067262;28;20035;-76
2023/03/10 06:26:16;;;;;;;15.65;9.60;;;307.40;2073.60;;;;;;5065586;28;20407;-76
2023/03/10 06:28:45;;;;;;;13.50;8.02;;;307.40;1920.00;;;;;;5089437;28;20476;-75
2023/03/10 06:31:20;;;;;;;14.07;8.90;;;307.40;1945.60;;;;;;5074024;28;20025;-74
2023/03/10 06:33:46;;;;;;;15.32;9.48;;;307.50;1945.60;;;;;;5060166;28;20493;-77
2023/03/10 06:36:12;;;;;;;13.40;8.95;;;307.60;2304.00;;;;;;5063661;28;20021;-75
2023/03/10 06:38:38;;;;;;;18.30;9.95;;;307.80;2304.00;;;;;;5065826;28;20031;-75
2023/03/10 06:41:05;;;;;;;13.63;9.27;;;308.00;2304.00;;;;;;5063652;28;20029;-81
2023/03/10 06:43:32;;;;;;;13.85;8.68;;;308.10;2304.00;;;;;;5073477;28;20140;-76
2023/03/10 06:45:58;;;;;;;13.85;8.68;;;308.00;2304.00;;;;;;5073866;28;20103;-76
2023/03/10 06:48:24;;;;;;;14.30;8.55;;;333.10;2329.60;;;;;;5073581;28;20025;-74
2023/03/10 06:50:50;;;;;;;20.98;9.05;;;333.20;2329.60;;;;;;5072040;28;20533;-75
2023/03/10 06:53:18;;;;;;;13.15;7.75;;;333.30;2329.60;;;;;;5073646;28;20043;-74
2023/03/10 06:55:44;;;;;;;13.82;8.07;;;333.40;2329.60;;;;;;5073617;28;20024;-74
2023/03/10 06:58:10;;;;;;;15.07;7.72;;;333.40;2329.60;;;;;;5072790;28;20020;-75
2023/03/10 07:00:37;;;;;;;13.57;7.60;;;333.30;2329.60;;;;;;5073356;28;20036;-79
2023/03/10 07:03:03;;;;;;;12.68;7.35;;;333.40;2329.60;;;;;;5073211;28;20028;-75
2023/03/10 07:05:29;;;;;;;9.90;6.45;;;333.30;2329.60;;;;;;5058581;28;20032;-77
2023/03/10 07:07:55;;;;;;;22.73;8.07;;;333.20;2329.60;;;;;;5072356;28;20021;-77
2023/03/10 07:10:21;;;;;;;11.35;7.05;;;333.20;2329.60;;;;;;5058559;28;20477;-76
2023/03/10 07:12:53;;;;;;;12.45;7.63;;;333.10;2329.60;;;;;;5071857;28;20017;-76
2023/03/10 07:15:20;;;;;;;11.15;6.95;;;333.10;2329.60;;;;;;5061291;28;20025;-76
2023/03/10 07:17:46;;;;;;;14.57;7.30;;;333.10;2329.60;;;;;;5073103;28;20100;-75
2023/03/10 07:20:12;;;;;;;15.18;7.68;;;333.10;2329.60;;;;;;5059572;28;20096;-75
2023/03/10 07:22:38;;;;;;;11.60;7.28;;;333.10;2329.60;;;;;;5071984;28;20415;-77
2023/03/10 07:25:04;;;;;;;10.68;7.00;;;333.10;2329.60;;;;;;5073304;28;20043;-79
2023/03/10 07:27:30;;;;;;;13.02;6.65;;;333.10;2329.60;;;;;;5071826;28;20059;-74
2023/03/10 07:29:56;;;;;;;11.07;6.72;;;333.10;2329.60;;;;;;5072815;28;20052;-76
2023/03/10 07:32:22;;;;;;;17.70;7.65;;;333.00;2329.60;;;;;;5071014;28;20037;-75
2023/03/10 07:34:50;;;;;;;16.60;9.55;;;333.00;2329.60;;;;;;5072739;28;20055;-75
2023/03/10 07:37:16;;;;;;;9.10;6.45;;;333.00;2329.60;;;;;;5072822;28;20047;-74
2023/03/10 07:39:42;;;;;;;13.38;6.75;;;333.00;2329.60;;;;;;5067666;28;20021;-74
2023/03/10 07:42:07;;;;;;;13.07;7.13;;;333.00;2329.60;;;;;;5051762;28;20506;-76
2023/03/10 07:44:33;;;;;;;13.45;8.20;;;333.00;2329.60;;;;;;5052531;28;20041;-75
2023/03/10 07:46:59;;;;;;;11.07;7.55;;;333.00;2329.60;;;;;;5053025;28;20071;-76
2023/03/10 07:49:25;;;;;;;13.35;7.55;;;333.00;2329.60;;;;;;5052615;28;20040;-76
2023/03/10 07:51:50;;;;;;;14.77;7.53;;;333.10;2329.60;;;;;;5065334;28;20031;-75
2023/03/10 07:54:16;;;;;;;13.48;8.20;;;333.10;2329.60;;;;;;5072520;28;20469;-76
2023/03/10 07:56:42;;;;;;;14.90;9.25;;;333.10;2329.60;;;;;;5071314;28;20099;-76
2023/03/10 07:59:08;;;;;;;12.07;7.32;;;333.10;2329.60;;;;;;5066988;28;20430;-76
2023/03/10 08:01:34;;;;;;;13.32;8.65;;;333.10;2329.60;;;;;;5055445;28;20020;-76
2023/03/10 08:03:59;;;;;;;11.65;8.15;;;333.20;2329.60;;;;;;5072735;28;20040;-76
2023/03/10 08:06:27;;;;;;;12.55;7.90;;;333.20;2329.60;;;;;;5071252;28;20116;-77
2023/03/10 08:08:54;;;;;;;16.05;10.32;;;333.30;2329.60;;;;;;5073737;28;20059;-76
2023/03/10 08:11:20;;;;;;;13.50;8.02;;;333.30;2329.60;;;;;;5092612;28;20037;-77
2023/03/10 08:13:47;;;;;;;13.93;7.90;;;333.30;2329.60;;;;;;5092620;28;20466;-78
2023/03/10 08:16:18;;;;;;;14.38;8.73;;;333.30;2329.60;;;;;;5077055;28;20074;-78
2023/03/10 08:18:44;;;;;;;11.88;8.35;;;333.30;2329.60;;;;;;5075244;28;20525;-76
2023/03/10 08:21:10;;;;;;;13.13;8.35;;;333.40;2329.60;;;;;;5076627;28;20107;-76
2023/03/10 08:23:37;;;;;;;9.68;6.30;;;333.40;2329.60;;;;;;5076847;28;20028;-76
2023/03/10 08:26:11;;;;;;;11.73;7.53;;;333.40;2329.60;;;;;;5076534;28;20029;-76
2023/03/10 08:28:37;;;;;;;15.10;9.55;;;333.40;2329.60;;;;;;5076756;28;20035;-75
2023/03/10 08:31:14;;;;;;;14.85;8.55;;;333.50;2329.60;;;;;;5075023;28;20465;-76
2023/03/10 08:33:41;;;;;;;16.38;7.75;;;333.50;2329.60;;;;;;5074882;28;20567;-74
2023/03/10 08:36:11;;;;;;;20.33;9.25;;;333.50;2329.60;;;;;;5075029;28;20036;-76
2023/03/10 08:38:38;;;;;;;18.80;8.68;;;333.50;2329.60;;;;;;5080212;28;20354;-76
2023/03/10 08:41:23;;;;;;;14.13;9.00;;;333.50;2329.60;;;;;;5076373;28;20025;-77
2023/03/10 08:43:49;;;;;;;11.98;8.05;;;333.60;2329.60;;;;;;5074544;28;20090;-75
2023/03/10 08:46:17;;;;;;;14.70;7.85;;;333.60;2329.60;;;;;;5074746;28;20024;-75
2023/03/10 08:48:43;;;;;;;15.05;8.60;;;333.60;2329.60;;;;;;5074645;28;20107;-77
2023/03/10 08:51:09;;;;;;;19.58;9.82;;;333.70;2329.60;;;;;;5076039;28;20507;-76
2023/03/10 08:53:36;;;;;;;14.27;8.77;;;333.70;2329.60;;;;;;5076117;28;20350;-76
2023/03/10 08:56:02;;;;;;;14.82;9.40;;;333.70;2329.60;;;;;;5076208;28;20123;-76
2023/03/10 08:58:28;;;;;;;12.48;8.70;;;333.70;2329.60;;;;;;5075428;28;20020;-77
2023/03/10 09:00:54;;;;;;;14.85;9.07;;;358.50;2329.60;;;;;;5075811;28;20100;-76
2023/03/10 09:03:20;;;;;;;13.88;8.52;;;333.70;2329.60;;;;;;5075508;28;20104;-77
2023/03/10 09:05:46;;;;;;;17.88;8.45;;;333.70;2329.60;;;;;;5075768;28;20032;-76
2023/03/10 09:08:12;;;;;;;17.67;8.50;;;358.40;2329.60;;;;;;5075715;28;20012;-76
2023/03/10 09:10:39;;;;;;;12.75;8.73;;;333.70;2329.60;;;;;;5075751;28;20021;-76
2023/03/10 09:13:05;;;;;;;13.98;8.85;;;333.70;2329.60;;;;;;5074291;28;20111;-76
2023/03/10 09:15:31;;;;;;;18.70;10.38;;;333.70;2329.60;;;;;;5075715;28;20572;-76
2023/03/10 09:17:56;;;;;;;17.33;10.90;;;333.70;2329.60;;;;;;5073581;28;20079;-76
2023/03/10 09:20:24;;;;;;;20.50;10.38;;;358.40;2329.60;;;;;;5074637;28;20040;-76
2023/03/10 09:22:55;;;;;;;16.77;10.30;;;358.40;2329.60;;;;;;5075435;28;20100;-76
2023/03/10 09:25:21;;;;;;;18.60;10.98;;;358.50;2329.60;;;;;;5075547;28;20032;-76
2023/03/10 09:27:47;;;;;;;16.45;10.20;;;358.50;2329.60;;;;;;5065715;28;20059;-74
2023/03/10 09:30:14;;;;;;;18.35;11.00;;;358.50;2329.60;;;;;;5068979;28;20032;-76
2023/03/10 09:32:39;;;;;;;15.27;9.07;;;358.70;2329.60;;;;;;5075168;28;20104;-78
2023/03/10 09:35:06;;;;;;;16.95;10.60;;;358.50;2329.60;;;;;;5073725;28;20127;-76
2023/03/10 09:37:32;;;;;;;17.95;10.63;;;358.50;2329.60;;;;;;5075384;28;20134;-74
2023/03/10 09:39:58;;;;;;;19.73;11.02;;;358.60;2329.60;;;;;;5075115;28;20099;-76
2023/03/10 09:42:48;;;;;;;15.70;10.57;;;358.60;2329.60;;;;;;5090703;28;20036;-76
2023/03/10 09:45:32;;;;;;;17.40;10.75;;;358.70;2329.60;;;;;;5073691;28;20076;-76
2023/03/10 09:48:21;;;;;;;23.70;14.43;;;358.80;2329.60;;;;;;5075001;28;20021;-77
2023/03/10 09:50:51;;;;;;;28.40;18.98;;;358.80;2329.60;;;;;;5073507;28;20021;-75
2023/03/10 09:53:38;;;;;;;27.83;14.82;;;358.80;2329.60;;;;;;5075588;28;20366;-76
2023/03/10 09:56:11;;;;;;;33.80;15.23;;;358.80;2329.60;;;;;;5074076;28;20044;-75
2023/03/10 09:58:55;;;;;;;17.63;11.88;;;358.80;2329.60;;;;;;5062934;28;20028;-75
2023/03/10 10:01:24;;;;;;;18.60;12.10;;;358.80;2329.60;;;;;;5061268;28;20029;-76
2023/03/10 10:04:06;;;;;;;25.35;14.88;;;358.80;2329.60;;;;;;5074344;28;20042;-74
2023/03/10 10:06:36;;;;;;;39.80;20.33;;;358.90;2329.60;;;;;;5074800;28;20021;-75
2023/03/10 10:09:22;;;;;;;33.30;16.50;;;358.90;2329.60;;;;;;5074512;28;20096;-76
2023/03/10 10:11:47;;;;;;;53.72;25.75;;;358.90;2329.60;;;;;;5072873;28;20048;-76
2023/03/10 10:14:17;;;;;;;49.83;22.13;;;358.90;2329.60;;;;;;5072303;28;20071;-76
2023/03/10 10:17:08;;;;;;;39.22;19.25;;;359.00;2329.60;;;;;;5059783;28;20035;-75
2023/03/10 10:19:38;;;;;;;34.75;17.45;;;359.00;2329.60;;;;;;5074310;28;20021;-76
2023/03/10 10:22:37;;;;;;;37.83;17.80;;;359.10;2329.60;;;;;;5060787;28;20016;-74
2023/03/10 10:25:15;;;;;;;34.08;16.63;;;359.10;2329.60;;;;;;4992331;28;20049;-74
2023/03/10 10:27:44;;;;;;;38.28;19.77;;;359.10;2329.60;;;;;;4992447;28;20049;-74
2023/03/10 10:30:27;;;;;;;26.67;14.77;;;359.20;2329.60;;;;;;4992740;28;20097;-75
2023/03/10 10:33:11;;;;;;;26.50;15.68;;;359.10;2329.60;;;;;;4992555;28;20057;-75
2023/03/10 10:35:59;;;;;;;28.67;17.35;;;359.20;2329.60;;;;;;4992578;28;20034;-76
2023/03/10 10:38:28;;;;;;;21.30;12.52;;;359.10;2329.60;;;;;;4964320;28;20038;-75
2023/03/10 10:41:02;;;;;;;21.67;12.10;;;359.20;2329.60;;;;;;4976031;28;20093;-75
2023/03/10 10:43:28;;;;;;;25.52;14.13;;;359.30;2329.60;;;;;;4992389;28;20395;-74
2023/03/10 10:46:06;;;;;;;39.30;20.95;;;384.40;2329.60;;;;;;4992296;28;20030;-74
2023/03/10 10:48:41;;;;;;;18.27;11.43;;;384.00;2329.60;;;;;;4992286;28;20058;-74
2023/03/10 10:51:29;;;;;;;13.97;10.20;;;384.00;2329.60;;;;;;4992351;28;20029;-75
2023/03/10 10:53:56;;;;;;;20.33;11.13;;;384.10;2329.60;;;;;;4992218;28;20042;-74
2023/03/10 10:56:23;;;;;;;17.55;10.45;;;384.20;2329.60;;;;;;4992812;28;20066;-76
2023/03/10 10:59:20;;;;;;;17.67;9.48;;;384.20;2329.60;;;;;;4992145;28;20018;-77
2023/03/10 11:02:11;;;;;;;14.88;9.45;;;384.20;2329.60;;;;;;5080159;28;20028;-74
2023/03/10 11:04:44;;;;;;;16.90;8.95;;;384.20;2329.60;;;;;;4992003;28;20440;-77
2023/03/10 11:07:24;;;;;;;13.55;6.95;;;384.20;2329.60;;;;;;4991561;28;20049;-75
2023/03/10 11:09:50;;;;;;;13.90;8.55;;;384.20;2329.60;;;;;;4980090;28;20085;-76
2023/03/10 11:12:27;;;;;;;14.98;8.23;;;384.30;2329.60;;;;;;4990920;28;20026;-75
2023/03/10 11:15:02;;;;;;;14.27;7.45;;;384.30;2329.60;;;;;;4983931;28;20042;-77
2023/03/10 11:17:52;;;;;;;15.05;6.40;;;384.30;2329.60;;;;;;4988276;28;20177;-75
2023/03/10 11:20:41;;;;;;;10.13;5.65;;;384.30;2329.60;;;;;;4978945;28;20031;-74
2023/03/10 11:23:17;;;;;;;9.10;4.78;;;384.30;2329.60;;;;;;4982162;28;20030;-78
2023/03/10 11:26:04;;;;;;;11.90;5.57;;;384.30;2329.60;;;;;;4991461;28;20030;-74
2023/03/10 11:28:32;;;;;;;;;;;384.30;2329.60;;;;;;4980916;28;20046;-74
2023/03/10 11:31:11;;;;;;;11.68;6.28;;;384.30;2329.60;;;;;;4987756;28;20274;-75
2023/03/10 11:34:21;;;;;;;12.60;6.90;;;384.20;2329.60;;;;;;4991269;28;20097;-76
2023/03/10 11:37:05;;;;;;;8.00;4.50;;;384.10;2329.60;;;;;;4898880;29;20039;-77
2023/03/10 11:39:54;;;;;;;14.50;4.45;;;384.10;2329.60;;;;;;4914844;29;20540;-75
2023/03/10 11:42:36;;;;;;;13.52;5.30;;;384.10;2329.60;;;;;;4960206;28;20125;-75
2023/03/10 11:45:02;;;;;;;12.40;6.30;;;384.10;2329.60;;;;;;4971537;28;20042;-75
2023/03/10 11:47:49;;;;;;;13.93;7.55;;;384.00;2329.60;;;;;;4965307;28;20038;-75
2023/03/10 11:50:30;;;;;;;10.52;7.00;;;384.00;2329.60;;;;;;4968799;28;20019;-75
2023/03/10 11:53:20;;;;;;;11.38;6.22;;;384.00;2329.60;;;;;;4970935;28;20039;-76
2023/03/10 11:55:47;;;;;;;13.10;7.28;;;359.30;2329.60;;;;;;4965160;28;20042;-75
2023/03/10 11:58:51;;;;;;;11.85;6.85;;;359.20;2329.60;;;;;;4953158;28;20034;-76
2023/03/10 12:01:27;;;;;;;11.07;6.25;;;358.90;2329.60;;;;;;4933560;29;20118;-77
2023/03/10 12:04:11;;;;;;;19.13;10.32;;;358.70;2329.60;;;;;;4933449;29;20623;-76
2023/03/10 12:07:04;;;;;;;15.43;9.10;;;358.60;2329.60;;;;;;4932930;29;20035;-75
2023/03/10 12:09:41;;;;;;;19.10;11.43;;;358.50;2329.60;;;;;;4933541;29;20067;-75
2023/03/10 12:12:12;;;;;;;11.48;6.40;;;358.50;2329.60;;;;;;4945967;28;20042;-76
2023/03/10 12:14:38;;;;;;;12.90;7.88;;;358.50;2329.60;;;;;;4994041;28;20026;-76
2023/03/10 12:17:04;;;;;;;19.23;8.63;;;358.50;2329.60;;;;;;4991511;28;20035;-76
2023/03/10 12:19:30;;;;;;;12.30;7.38;;;358.50;2329.60;;;;;;4995350;28;20068;-76